Terminal Aerodrome Forecast
Issued by NWS

Current Version | Previous Version | Text Only | Print | Product List | Glossary On
Versions: 1 2 3 4 5 6 7 8 9 10 11 12 13 14 15 16 17 18 19 20 21 22 23 24 25 26 27
000
FTUS41 KPBZ 292320
TAFHLG
TAF
KHLG 292320Z 3000/3024 VRB04KT P6SM SCT040
     FM300400 27005KT P6SM VCSH BKN040
     FM300800 27005KT P6SM BKN050
     FM301400 27008KT P6SM SCT040=

USA.gov is the U.S. government's official web portal to all federal, state and local government web resources and services.